Terminal Aerodrome Forecast
Issued by NWS

Home | Current Version | Previous Version | Text Only | Print | Product List | Glossary On
Versions: 1 2 3 4 5 6 7 8 9 10 11 12 13 14 15 16 17 18 19 20 21 22
778
FTUS44 KBMX 271844 AAA
TAFTCL
TAF AMD
KTCL 271844Z 2719/2818 32005KT P6SM -RA OVC009
     FM272000 12005KT P6SM OVC007
     FM281000 12006KT 5SM SHRA OVC005
     FM281500 17008KT P6SM VCSH OVC008=

USA.gov is the U.S. government's official web portal to all federal, state and local government web resources and services.